sensor_id;sensor_type;location;lat;lon;timestamp;pressure;altitude;pressure_sealevel;temperature;humidity
41800;BME280;27468;47.460;19.034;2023-05-03T00:00:29;100653.09;;;15.18;89.28
41800;BME280;27468;47.460;19.034;2023-05-03T00:02:55;100694.88;;;15.40;90.84
41800;BME280;27468;47.460;19.034;2023-05-03T00:05:21;100599.44;;;14.84;91.37
41800;BME280;27468;47.460;19.034;2023-05-03T00:07:46;100704.56;;;15.41;91.33
41800;BME280;27468;47.460;19.034;2023-05-03T00:10:12;100660.91;;;15.23;90.78
41800;BME280;27468;47.460;19.034;2023-05-03T00:12:40;100694.31;;;15.30;92.43
41800;BME280;27468;47.460;19.034;2023-05-03T00:15:07;100688.91;;;15.33;91.90
41800;BME280;27468;47.460;19.034;2023-05-03T00:17:33;100656.22;;;15.05;92.76
41800;BME280;27468;47.460;19.034;2023-05-03T00:19:59;100621.06;;;14.72;93.86
41800;BME280;27468;47.460;19.034;2023-05-03T00:22:25;100667.19;;;15.20;92.69
41800;BME280;27468;47.460;19.034;2023-05-03T00:24:51;100594.13;;;14.84;92.00
41800;BME280;27468;47.460;19.034;2023-05-03T00:27:17;100612.84;;;14.79;93.25
41800;BME280;27468;47.460;19.034;2023-05-03T00:29:42;100649.31;;;15.01;93.84
41800;BME280;27468;47.460;19.034;2023-05-03T00:32:07;100658.34;;;14.95;93.31
41800;BME280;27468;47.460;19.034;2023-05-03T00:34:35;100591.47;;;14.58;93.67
41800;BME280;27468;47.460;19.034;2023-05-03T00:37:01;100596.72;;;14.59;93.08
41800;BME280;27468;47.460;19.034;2023-05-03T00:39:28;100666.47;;;14.91;93.13
41800;BME280;27468;47.460;19.034;2023-05-03T00:41:56;100673.03;;;15.05;93.14
41800;BME280;27468;47.460;19.034;2023-05-03T00:44:22;100630.81;;;14.71;93.09
41800;BME280;27468;47.460;19.034;2023-05-03T00:46:48;100643.16;;;14.72;93.40
41800;BME280;27468;47.460;19.034;2023-05-03T00:49:13;100669.38;;;14.83;93.20
41800;BME280;27468;47.460;19.034;2023-05-03T00:51:39;100540.91;;;14.08;92.89
41800;BME280;27468;47.460;19.034;2023-05-03T00:54:06;100647.56;;;14.73;92.83
41800;BME280;27468;47.460;19.034;2023-05-03T00:56:32;100620.03;;;14.49;92.83
41800;BME280;27468;47.460;19.034;2023-05-03T00:58:58;100652.09;;;14.70;92.58
41800;BME280;27468;47.460;19.034;2023-05-03T01:01:24;100619.94;;;14.52;92.37
41800;BME280;27468;47.460;19.034;2023-05-03T01:03:50;100653.84;;;14.71;92.28
41800;BME280;27468;47.460;19.034;2023-05-03T01:06:22;100713.47;;;14.87;93.09
41800;BME280;27468;47.460;19.034;2023-05-03T01:08:57;100695.13;;;14.79;93.93
41800;BME280;27468;47.460;19.034;2023-05-03T01:14:19;100717.56;;;14.97;93.53
41800;BME280;27468;47.460;19.034;2023-05-03T01:16:55;100718.59;;;14.93;94.08
41800;BME280;27468;47.460;19.034;2023-05-03T01:19:44;100709.75;;;14.93;93.97
41800;BME280;27468;47.460;19.034;2023-05-03T01:22:31;100692.75;;;14.98;92.72
41800;BME280;27468;47.460;19.034;2023-05-03T01:25:09;100716.19;;;15.12;92.72
41800;BME280;27468;47.460;19.034;2023-05-03T01:27:36;100716.19;;;15.12;92.86
41800;BME280;27468;47.460;19.034;2023-05-03T01:30:03;100676.56;;;14.79;93.54
41800;BME280;27468;47.460;19.034;2023-05-03T01:32:51;100717.53;;;14.99;94.20
41800;BME280;27468;47.460;19.034;2023-05-03T01:35:36;100713.22;;;14.95;94.85
41800;BME280;27468;47.460;19.034;2023-05-03T01:38:06;100645.44;;;14.57;93.87
41800;BME280;27468;47.460;19.034;2023-05-03T01:40:37;100664.59;;;14.66;93.75
41800;BME280;27468;47.460;19.034;2023-05-03T01:43:05;100661.75;;;14.72;93.77
41800;BME280;27468;47.460;19.034;2023-05-03T01:45:31;100635.34;;;14.41;94.76
41800;BME280;27468;47.460;19.034;2023-05-03T01:47:57;100627.41;;;14.40;94.97
41800;BME280;27468;47.460;19.034;2023-05-03T01:50:23;100664.22;;;14.50;95.59
41800;BME280;27468;47.460;19.034;2023-05-03T01:52:49;100645.81;;;14.44;96.17
41800;BME280;27468;47.460;19.034;2023-05-03T01:55:16;100651.91;;;14.48;96.23
41800;BME280;27468;47.460;19.034;2023-05-03T01:57:42;100660.59;;;14.53;97.03
41800;BME280;27468;47.460;19.034;2023-05-03T02:00:08;100700.53;;;14.76;97.19
41800;BME280;27468;47.460;19.034;2023-05-03T02:02:34;100688.44;;;14.68;97.39
41800;BME280;27468;47.460;19.034;2023-05-03T02:04:59;100694.59;;;14.68;97.57
41800;BME280;27468;47.460;19.034;2023-05-03T02:07:25;100679.59;;;14.67;97.01
41800;BME280;27468;47.460;19.034;2023-05-03T02:09:50;100693.59;;;14.72;97.21
41800;BME280;27468;47.460;19.034;2023-05-03T02:12:16;100704.88;;;14.79;97.33
41800;BME280;27468;47.460;19.034;2023-05-03T02:14:41;100674.38;;;14.64;97.01
41800;BME280;27468;47.460;19.034;2023-05-03T02:17:06;100622.78;;;14.46;96.76
41800;BME280;27468;47.460;19.034;2023-05-03T02:19:32;100630.19;;;14.35;97.55
41800;BME280;27468;47.460;19.034;2023-05-03T02:21:57;100619.06;;;14.24;98.49
41800;BME280;27468;47.460;19.034;2023-05-03T02:24:23;100662.84;;;14.37;99.19
41800;BME280;27468;47.460;19.034;2023-05-03T02:26:48;100583.78;;;13.93;99.45
41800;BME280;27468;47.460;19.034;2023-05-03T02:29:14;100655.91;;;14.33;99.68
41800;BME280;27468;47.460;19.034;2023-05-03T02:31:40;100636.50;;;14.31;99.07
41800;BME280;27468;47.460;19.034;2023-05-03T02:34:05;100615.25;;;14.33;98.30
41800;BME280;27468;47.460;19.034;2023-05-03T02:36:30;100580.75;;;14.05;98.85
41800;BME280;27468;47.460;19.034;2023-05-03T02:38:56;100684.22;;;14.61;98.44
41800;BME280;27468;47.460;19.034;2023-05-03T02:41:21;100645.97;;;14.41;99.16
41800;BME280;27468;47.460;19.034;2023-05-03T02:43:47;100678.00;;;14.62;98.96
41800;BME280;27468;47.460;19.034;2023-05-03T02:46:12;100596.78;;;14.30;97.99
41800;BME280;27468;47.460;19.034;2023-05-03T02:48:37;100591.56;;;14.27;97.71
41800;BME280;27468;47.460;19.034;2023-05-03T02:51:04;100614.19;;;14.38;98.61
41800;BME280;27468;47.460;19.034;2023-05-03T02:53:30;100631.13;;;14.34;99.63
41800;BME280;27468;47.460;19.034;2023-05-03T02:55:55;100591.41;;;14.03;100.00
41800;BME280;27468;47.460;19.034;2023-05-03T02:58:21;100618.28;;;14.20;100.00
41800;BME280;27468;47.460;19.034;2023-05-03T03:00:46;100555.63;;;13.88;100.00
41800;BME280;27468;47.460;19.034;2023-05-03T03:03:12;100679.31;;;14.48;100.00
41800;BME280;27468;47.460;19.034;2023-05-03T03:05:37;100617.31;;;14.23;100.00
41800;BME280;27468;47.460;19.034;2023-05-03T03:08:03;100612.06;;;14.21;100.00
41800;BME280;27468;47.460;19.034;2023-05-03T03:10:28;100608.09;;;14.07;100.00
41800;BME280;27468;47.460;19.034;2023-05-03T03:12:54;100600.31;;;14.01;100.00
41800;BME280;27468;47.460;19.034;2023-05-03T03:15:19;100660.53;;;14.27;100.00
41800;BME280;27468;47.460;19.034;2023-05-03T03:17:45;100617.19;;;13.98;100.00
41800;BME280;27468;47.460;19.034;2023-05-03T03:20:10;100675.38;;;14.32;100.00
41800;BME280;27468;47.460;19.034;2023-05-03T03:22:39;100590.53;;;13.75;100.00
41800;BME280;27468;47.460;19.034;2023-05-03T03:25:05;100628.66;;;13.99;100.00
41800;BME280;27468;47.460;19.034;2023-05-03T03:27:31;100631.13;;;14.05;100.00
41800;BME280;27468;47.460;19.034;2023-05-03T03:29:57;100609.31;;;13.95;100.00
41800;BME280;27468;47.460;19.034;2023-05-03T03:32:23;100592.91;;;13.84;100.00
41800;BME280;27468;47.460;19.034;2023-05-03T03:34:48;100617.09;;;14.01;100.00
41800;BME280;27468;47.460;19.034;2023-05-03T03:37:15;100644.16;;;14.12;100.00
41800;BME280;27468;47.460;19.034;2023-05-03T03:39:40;100651.19;;;14.13;100.00
41800;BME280;27468;47.460;19.034;2023-05-03T03:42:06;100584.19;;;13.80;100.00
41800;BME280;27468;47.460;19.034;2023-05-03T03:44:32;100666.88;;;14.21;100.00
41800;BME280;27468;47.460;19.034;2023-05-03T03:46:57;100685.22;;;14.29;100.00
41800;BME280;27468;47.460;19.034;2023-05-03T03:49:22;100632.19;;;13.99;100.00
41800;BME280;27468;47.460;19.034;2023-05-03T03:51:48;100640.09;;;14.01;100.00
41800;BME280;27468;47.460;19.034;2023-05-03T03:54:13;100648.34;;;14.19;100.00
41800;BME280;27468;47.460;19.034;2023-05-03T03:56:39;100681.38;;;14.39;100.00
41800;BME280;27468;47.460;19.034;2023-05-03T03:59:04;100698.09;;;14.42;100.00
41800;BME280;27468;47.460;19.034;2023-05-03T04:01:30;100645.13;;;14.10;100.00
41800;BME280;27468;47.460;19.034;2023-05-03T04:03:56;100614.75;;;13.91;100.00
41800;BME280;27468;47.460;19.034;2023-05-03T04:06:21;100643.50;;;14.04;100.00
41800;BME280;27468;47.460;19.034;2023-05-03T04:08:46;100614.94;;;13.86;100.00
41800;BME280;27468;47.460;19.034;2023-05-03T04:11:12;100684.34;;;14.28;100.00
41800;BME280;27468;47.460;19.034;2023-05-03T04:13:40;100668.84;;;14.14;100.00
41800;BME280;27468;47.460;19.034;2023-05-03T04:16:06;100676.63;;;14.20;100.00
41800;BME280;27468;47.460;19.034;2023-05-03T04:18:32;100622.53;;;13.97;100.00
41800;BME280;27468;47.460;19.034;2023-05-03T04:20:57;100675.66;;;14.23;100.00
41800;BME280;27468;47.460;19.034;2023-05-03T04:23:22;100681.66;;;14.30;100.00
41800;BME280;27468;47.460;19.034;2023-05-03T04:25:48;100695.47;;;14.41;100.00
41800;BME280;27468;47.460;19.034;2023-05-03T04:28:13;100647.63;;;14.14;100.00
41800;BME280;27468;47.460;19.034;2023-05-03T04:30:40;100646.91;;;14.09;100.00
41800;BME280;27468;47.460;19.034;2023-05-03T04:33:08;100668.47;;;14.27;100.00
41800;BME280;27468;47.460;19.034;2023-05-03T04:35:33;100655.25;;;14.25;100.00
41800;BME280;27468;47.460;19.034;2023-05-03T04:38:00;100705.78;;;14.50;100.00
41800;BME280;27468;47.460;19.034;2023-05-03T04:40:27;100622.03;;;14.13;99.42
41800;BME280;27468;47.460;19.034;2023-05-03T04:42:52;100696.09;;;14.49;98.53
41800;BME280;27468;47.460;19.034;2023-05-03T04:45:18;100672.31;;;14.46;98.32
41800;BME280;27468;47.460;19.034;2023-05-03T04:47:45;100634.97;;;14.24;98.33
41800;BME280;27468;47.460;19.034;2023-05-03T04:50:10;100630.44;;;14.28;97.80
41800;BME280;27468;47.460;19.034;2023-05-03T04:52:36;100729.75;;;14.76;97.53
41800;BME280;27468;47.460;19.034;2023-05-03T04:55:02;100704.22;;;14.72;97.56
41800;BME280;27468;47.460;19.034;2023-05-03T04:57:28;100705.75;;;14.79;97.06
41800;BME280;27468;47.460;19.034;2023-05-03T04:59:54;100729.44;;;14.85;95.92
41800;BME280;27468;47.460;19.034;2023-05-03T05:02:20;100664.16;;;14.52;95.91
41800;BME280;27468;47.460;19.034;2023-05-03T05:04:45;100725.69;;;14.93;95.58
41800;BME280;27468;47.460;19.034;2023-05-03T05:07:11;100736.59;;;15.10;94.55
41800;BME280;27468;47.460;19.034;2023-05-03T05:09:37;100728.78;;;15.05;93.80
41800;BME280;27468;47.460;19.034;2023-05-03T05:12:03;100709.19;;;14.83;93.19
41800;BME280;27468;47.460;19.034;2023-05-03T05:14:30;100745.13;;;15.19;93.06
41800;BME280;27468;47.460;19.034;2023-05-03T05:16:56;100735.38;;;15.20;92.77
41800;BME280;27468;47.460;19.034;2023-05-03T05:19:21;100701.88;;;15.16;91.73
41800;BME280;27468;47.460;19.034;2023-05-03T05:21:47;100726.00;;;15.36;90.84
41800;BME280;27468;47.460;19.034;2023-05-03T05:24:12;100690.91;;;15.27;90.42
41800;BME280;27468;47.460;19.034;2023-05-03T05:26:38;100727.69;;;15.39;89.86
41800;BME280;27468;47.460;19.034;2023-05-03T05:29:03;100725.78;;;15.42;89.53
41800;BME280;27468;47.460;19.034;2023-05-03T05:31:29;100681.91;;;15.31;89.47
41800;BME280;27468;47.460;19.034;2023-05-03T05:33:56;100706.22;;;15.70;89.06
41800;BME280;27468;47.460;19.034;2023-05-03T05:36:22;100755.00;;;15.94;88.17
41800;BME280;27468;47.460;19.034;2023-05-03T05:38:47;100741.03;;;16.12;86.06
41800;BME280;27468;47.460;19.034;2023-05-03T05:41:12;100743.97;;;16.28;85.68
41800;BME280;27468;47.460;19.034;2023-05-03T05:43:38;100712.94;;;16.05;84.40
41800;BME280;27468;47.460;19.034;2023-05-03T05:46:03;100748.50;;;16.49;82.52
41800;BME280;27468;47.460;19.034;2023-05-03T05:48:29;100701.06;;;16.37;81.57
41800;BME280;27468;47.460;19.034;2023-05-03T05:50:54;100744.34;;;16.65;80.27
41800;BME280;27468;47.460;19.034;2023-05-03T05:53:20;100714.94;;;16.45;79.23
41800;BME280;27468;47.460;19.034;2023-05-03T05:55:45;100695.56;;;16.18;79.47
41800;BME280;27468;47.460;19.034;2023-05-03T05:58:11;100750.88;;;16.33;80.05
41800;BME280;27468;47.460;19.034;2023-05-03T06:00:37;100775.44;;;16.40;80.07
41800;BME280;27468;47.460;19.034;2023-05-03T06:03:04;100767.13;;;16.49;81.18
41800;BME280;27468;47.460;19.034;2023-05-03T06:05:29;100778.28;;;16.59;80.47
41800;BME280;27468;47.460;19.034;2023-05-03T06:07:55;100788.38;;;16.50;79.61
41800;BME280;27468;47.460;19.034;2023-05-03T06:10:20;100788.41;;;16.49;79.85
41800;BME280;27468;47.460;19.034;2023-05-03T06:12:46;100773.72;;;16.62;80.27
41800;BME280;27468;47.460;19.034;2023-05-03T06:15:11;100700.66;;;16.24;80.30
41800;BME280;27468;47.460;19.034;2023-05-03T06:17:37;100735.94;;;16.52;80.38
41800;BME280;27468;47.460;19.034;2023-05-03T06:20:03;100779.78;;;16.89;80.64
41800;BME280;27468;47.460;19.034;2023-05-03T06:22:28;100808.19;;;17.12;80.05
41800;BME280;27468;47.460;19.034;2023-05-03T06:24:54;100798.50;;;17.09;78.44
41800;BME280;27468;47.460;19.034;2023-05-03T06:27:20;100787.53;;;17.17;77.48
41800;BME280;27468;47.460;19.034;2023-05-03T06:29:46;100750.94;;;17.00;76.51
41800;BME280;27468;47.460;19.034;2023-05-03T06:32:12;100791.75;;;17.23;75.12
41800;BME280;27468;47.460;19.034;2023-05-03T06:34:37;100787.19;;;17.46;74.68
41800;BME280;27468;47.460;19.034;2023-05-03T06:37:03;100819.06;;;17.71;73.17
41800;BME280;27468;47.460;19.034;2023-05-03T06:39:29;100811.00;;;17.93;72.87
41800;BME280;27468;47.460;19.034;2023-05-03T06:41:55;100779.41;;;17.84;73.37
41800;BME280;27468;47.460;19.034;2023-05-03T06:44:20;100794.66;;;18.01;72.45
41800;BME280;27468;47.460;19.034;2023-05-03T06:46:46;100812.84;;;18.32;70.47
41800;BME280;27468;47.460;19.034;2023-05-03T06:49:11;100779.50;;;18.22;69.23
41800;BME280;27468;47.460;19.034;2023-05-03T06:51:36;100785.22;;;18.33;68.58
41800;BME280;27468;47.460;19.034;2023-05-03T06:54:02;100772.88;;;18.49;67.93
41800;BME280;27468;47.460;19.034;2023-05-03T06:56:37;100812.28;;;18.83;66.94
41800;BME280;27468;47.460;19.034;2023-05-03T06:59:02;100765.78;;;18.68;67.70
41800;BME280;27468;47.460;19.034;2023-05-03T07:01:31;100781.88;;;18.86;67.46
41800;BME280;27468;47.460;19.034;2023-05-03T07:03:58;100734.75;;;18.66;67.00
41800;BME280;27468;47.460;19.034;2023-05-03T07:06:23;100753.88;;;18.75;68.15
41800;BME280;27468;47.460;19.034;2023-05-03T07:08:52;100809.75;;;19.35;66.47
41800;BME280;27468;47.460;19.034;2023-05-03T07:11:21;100801.28;;;19.44;63.78
41800;BME280;27468;47.460;19.034;2023-05-03T07:13:49;100797.34;;;19.34;62.53
41800;BME280;27468;47.460;19.034;2023-05-03T07:16:15;100794.91;;;19.46;64.19
41800;BME280;27468;47.460;19.034;2023-05-03T07:18:41;100797.00;;;19.76;64.57
41800;BME280;27468;47.460;19.034;2023-05-03T07:21:06;100732.56;;;19.10;64.30
41800;BME280;27468;47.460;19.034;2023-05-03T07:23:32;100754.97;;;19.43;64.21
41800;BME280;27468;47.460;19.034;2023-05-03T07:25:57;100789.69;;;19.79;64.46
41800;BME280;27468;47.460;19.034;2023-05-03T07:28:23;100811.34;;;19.92;61.12
41800;BME280;27468;47.460;19.034;2023-05-03T07:30:49;100783.69;;;19.92;61.68
41800;BME280;27468;47.460;19.034;2023-05-03T07:33:15;100762.94;;;19.79;60.89
41800;BME280;27468;47.460;19.034;2023-05-03T07:35:40;100774.34;;;19.66;60.81
41800;BME280;27468;47.460;19.034;2023-05-03T07:38:06;100801.81;;;19.87;60.30
41800;BME280;27468;47.460;19.034;2023-05-03T07:40:31;100766.56;;;19.61;60.34
41800;BME280;27468;47.460;19.034;2023-05-03T07:42:58;100757.97;;;19.72;60.91
41800;BME280;27468;47.460;19.034;2023-05-03T07:45:24;100768.13;;;19.83;60.17
41800;BME280;27468;47.460;19.034;2023-05-03T07:47:50;100811.63;;;20.21;59.60
41800;BME280;27468;47.460;19.034;2023-05-03T07:50:15;100783.69;;;20.09;58.20
41800;BME280;27468;47.460;19.034;2023-05-03T07:52:41;100784.97;;;20.02;58.82
41800;BME280;27468;47.460;19.034;2023-05-03T07:55:07;100787.78;;;20.16;58.82
41800;BME280;27468;47.460;19.034;2023-05-03T07:57:33;100767.47;;;20.12;59.11
41800;BME280;27468;47.460;19.034;2023-05-03T07:59:58;100801.03;;;20.35;59.04
41800;BME280;27468;47.460;19.034;2023-05-03T08:02:24;100773.16;;;20.39;57.41
41800;BME280;27468;47.460;19.034;2023-05-03T08:04:49;100762.59;;;20.36;56.86
41800;BME280;27468;47.460;19.034;2023-05-03T08:07:15;100813.22;;;20.58;56.85
41800;BME280;27468;47.460;19.034;2023-05-03T08:09:41;100820.75;;;20.67;57.41
41800;BME280;27468;47.460;19.034;2023-05-03T08:12:07;100808.22;;;20.67;57.64
41800;BME280;27468;47.460;19.034;2023-05-03T08:14:32;100824.31;;;20.67;56.11
41800;BME280;27468;47.460;19.034;2023-05-03T08:16:58;100798.44;;;20.51;56.02
41800;BME280;27468;47.460;19.034;2023-05-03T08:19:24;100777.78;;;20.35;57.05
41800;BME280;27468;47.460;19.034;2023-05-03T08:21:50;100826.56;;;20.91;56.86
41800;BME280;27468;47.460;19.034;2023-05-03T08:24:18;100784.81;;;20.71;56.94
41800;BME280;27468;47.460;19.034;2023-05-03T08:26:44;100829.06;;;20.78;55.54
41800;BME280;27468;47.460;19.034;2023-05-03T08:29:10;100816.75;;;20.58;54.29
41800;BME280;27468;47.460;19.034;2023-05-03T08:31:36;100805.28;;;20.72;54.51
41800;BME280;27468;47.460;19.034;2023-05-03T08:34:01;100794.13;;;20.64;55.28
41800;BME280;27468;47.460;19.034;2023-05-03T08:36:28;100800.34;;;20.80;53.34
41800;BME280;27468;47.460;19.034;2023-05-03T08:38:54;100774.34;;;20.66;52.58
41800;BME280;27468;47.460;19.034;2023-05-03T08:41:29;100828.78;;;20.83;53.02
41800;BME280;27468;47.460;19.034;2023-05-03T08:43:56;100801.75;;;20.71;53.17
41800;BME280;27468;47.460;19.034;2023-05-03T08:46:22;100846.47;;;21.02;53.13
41800;BME280;27468;47.460;19.034;2023-05-03T08:48:51;100823.63;;;20.95;52.50
41800;BME280;27468;47.460;19.034;2023-05-03T08:51:17;100840.78;;;21.24;51.56
41800;BME280;27468;47.460;19.034;2023-05-03T08:53:43;100797.31;;;20.86;52.33
41800;BME280;27468;47.460;19.034;2023-05-03T08:56:09;100848.97;;;21.05;52.96
41800;BME280;27468;47.460;19.034;2023-05-03T08:58:37;100793.69;;;20.87;53.17
41800;BME280;27468;47.460;19.034;2023-05-03T09:01:07;100838.50;;;21.17;53.51
41800;BME280;27468;47.460;19.034;2023-05-03T09:03:33;100818.28;;;21.11;53.18
41800;BME280;27468;47.460;19.034;2023-05-03T09:05:59;100775.75;;;20.73;52.46
41800;BME280;27468;47.460;19.034;2023-05-03T09:08:41;100839.50;;;21.31;52.90
41800;BME280;27468;47.460;19.034;2023-05-03T09:11:19;100790.50;;;21.12;53.11
41800;BME280;27468;47.460;19.034;2023-05-03T09:13:45;100784.56;;;21.23;52.55
41800;BME280;27468;47.460;19.034;2023-05-03T09:16:10;100821.59;;;21.62;51.81
41800;BME280;27468;47.460;19.034;2023-05-03T09:18:37;100771.06;;;21.24;52.39
41800;BME280;27468;47.460;19.034;2023-05-03T09:21:04;100832.00;;;21.52;51.34
41800;BME280;27468;47.460;19.034;2023-05-03T09:23:30;100785.63;;;21.50;51.88
41800;BME280;27468;47.460;19.034;2023-05-03T09:25:56;100829.53;;;22.09;50.97
41800;BME280;27468;47.460;19.034;2023-05-03T09:28:22;100784.50;;;21.84;50.76
41800;BME280;27468;47.460;19.034;2023-05-03T09:30:48;100801.25;;;22.18;50.16
41800;BME280;27468;47.460;19.034;2023-05-03T09:33:14;100833.88;;;22.26;50.73
41800;BME280;27468;47.460;19.034;2023-05-03T09:36:01;100805.22;;;22.40;49.78
41800;BME280;27468;47.460;19.034;2023-05-03T09:38:29;100788.53;;;22.35;49.22
41800;BME280;27468;47.460;19.034;2023-05-03T09:40:55;100788.72;;;22.47;49.54
41800;BME280;27468;47.460;19.034;2023-05-03T09:43:20;100832.47;;;22.63;49.61
41800;BME280;27468;47.460;19.034;2023-05-03T09:45:45;100770.97;;;22.44;48.71
41800;BME280;27468;47.460;19.034;2023-05-03T09:48:12;100812.97;;;22.73;48.19
41800;BME280;27468;47.460;19.034;2023-05-03T09:50:37;100821.13;;;22.72;48.65
41800;BME280;27468;47.460;19.034;2023-05-03T09:53:05;100814.81;;;22.87;48.25
41800;BME280;27468;47.460;19.034;2023-05-03T09:55:38;100791.97;;;22.37;48.76
41800;BME280;27468;47.460;19.034;2023-05-03T09:58:05;100816.44;;;22.61;47.93
41800;BME280;27468;47.460;19.034;2023-05-03T10:00:40;100827.09;;;22.63;48.19
41800;BME280;27468;47.460;19.034;2023-05-03T10:03:13;100763.38;;;22.36;48.49
41800;BME280;27468;47.460;19.034;2023-05-03T10:05:45;100815.94;;;22.69;47.60
41800;BME280;27468;47.460;19.034;2023-05-03T10:10:50;100797.38;;;22.52;47.93
41800;BME280;27468;47.460;19.034;2023-05-03T10:13:19;100814.72;;;22.89;47.94
41800;BME280;27468;47.460;19.034;2023-05-03T10:15:45;100781.69;;;22.72;47.98
41800;BME280;27468;47.460;19.034;2023-05-03T10:18:12;100773.63;;;22.72;47.58
41800;BME280;27468;47.460;19.034;2023-05-03T10:20:49;100777.75;;;22.64;48.74
41800;BME280;27468;47.460;19.034;2023-05-03T10:23:18;100822.50;;;22.79;47.75
41800;BME280;27468;47.460;19.034;2023-05-03T10:28:36;100796.75;;;22.61;48.75
41800;BME280;27468;47.460;19.034;2023-05-03T10:31:01;100806.94;;;22.98;48.88
41800;BME280;27468;47.460;19.034;2023-05-03T10:35:54;100794.19;;;23.15;47.36
41800;BME280;27468;47.460;19.034;2023-05-03T10:38:23;100769.41;;;22.83;47.75
41800;BME280;27468;47.460;19.034;2023-05-03T10:40:49;100765.38;;;22.61;47.93
41800;BME280;27468;47.460;19.034;2023-05-03T10:46:02;100808.69;;;22.85;48.47
41800;BME280;27468;47.460;19.034;2023-05-03T10:48:29;100780.81;;;22.58;49.10
41800;BME280;27468;47.460;19.034;2023-05-03T10:50:56;100804.63;;;22.64;48.60
41800;BME280;27468;47.460;19.034;2023-05-03T10:58:28;100792.34;;;22.17;50.25
41800;BME280;27468;47.460;19.034;2023-05-03T11:00:54;100790.06;;;22.25;49.76
41800;BME280;27468;47.460;19.034;2023-05-03T11:03:26;100801.28;;;22.46;49.41
41800;BME280;27468;47.460;19.034;2023-05-03T11:05:55;100782.47;;;22.46;49.37
41800;BME280;27468;47.460;19.034;2023-05-03T11:08:23;100790.16;;;22.52;49.46
41800;BME280;27468;47.460;19.034;2023-05-03T11:10:56;100788.44;;;22.37;49.56
41800;BME280;27468;47.460;19.034;2023-05-03T11:13:22;100788.63;;;22.34;49.38
41800;BME280;27468;47.460;19.034;2023-05-03T11:15:48;100788.53;;;22.35;48.84
41800;BME280;27468;47.460;19.034;2023-05-03T11:18:14;100807.34;;;22.35;48.65
41800;BME280;27468;47.460;19.034;2023-05-03T11:20:40;100795.03;;;22.31;48.83
41800;BME280;27468;47.460;19.034;2023-05-03T11:23:05;100806.38;;;22.36;49.07
41800;BME280;27468;47.460;19.034;2023-05-03T11:25:34;100792.84;;;22.38;48.90
41800;BME280;27468;47.460;19.034;2023-05-03T11:28:00;100800.91;;;22.38;48.90
41800;BME280;27468;47.460;19.034;2023-05-03T11:30:29;100797.75;;;22.46;48.58
41800;BME280;27468;47.460;19.034;2023-05-03T11:32:58;100774.91;;;22.24;48.16
41800;BME280;27468;47.460;19.034;2023-05-03T11:35:23;100760.88;;;22.19;48.10
41800;BME280;27468;47.460;19.034;2023-05-03T11:37:51;100793.22;;;22.46;47.73
41800;BME280;27468;47.460;19.034;2023-05-03T11:40:16;100779.31;;;22.25;47.84
41800;BME280;27468;47.460;19.034;2023-05-03T11:42:55;100794.44;;;22.12;48.96
41800;BME280;27468;47.460;19.034;2023-05-03T11:45:24;100796.44;;;22.08;48.75
41800;BME280;27468;47.460;19.034;2023-05-03T11:47:50;100756.06;;;21.66;49.71
41800;BME280;27468;47.460;19.034;2023-05-03T11:50:17;100791.78;;;21.82;49.82
41800;BME280;27468;47.460;19.034;2023-05-03T11:52:43;100810.88;;;21.92;50.20
41800;BME280;27468;47.460;19.034;2023-05-03T11:55:10;100798.66;;;22.02;49.86
41800;BME280;27468;47.460;19.034;2023-05-03T11:57:36;100790.28;;;21.92;50.30
41800;BME280;27468;47.460;19.034;2023-05-03T12:00:12;100779.53;;;21.92;49.57
41800;BME280;27468;47.460;19.034;2023-05-03T12:02:39;100763.94;;;21.69;49.83
41800;BME280;27468;47.460;19.034;2023-05-03T12:05:06;100788.91;;;21.85;50.31
41800;BME280;27468;47.460;19.034;2023-05-03T12:07:32;100773.63;;;21.71;50.26
41800;BME280;27468;47.460;19.034;2023-05-03T12:09:57;100768.72;;;21.64;50.22
41800;BME280;27468;47.460;19.034;2023-05-03T12:12:23;100780.53;;;21.75;50.17
41800;BME280;27468;47.460;19.034;2023-05-03T12:15:01;100783.28;;;21.90;49.79
41800;BME280;27468;47.460;19.034;2023-05-03T12:17:33;100794.13;;;22.02;49.82
41800;BME280;27468;47.460;19.034;2023-05-03T12:20:17;100792.31;;;21.73;50.58
41800;BME280;27468;47.460;19.034;2023-05-03T12:22:43;100762.50;;;21.63;49.71
41800;BME280;27468;47.460;19.034;2023-05-03T12:25:08;100782.38;;;21.75;50.29
41800;BME280;27468;47.460;19.034;2023-05-03T12:27:34;100780.41;;;21.63;50.79
41800;BME280;27468;47.460;19.034;2023-05-03T12:29:59;100751.47;;;21.68;50.18
41800;BME280;27468;47.460;19.034;2023-05-03T12:32:25;100730.28;;;21.63;49.95
41800;BME280;27468;47.460;19.034;2023-05-03T12:34:54;100784.69;;;21.81;50.41
41800;BME280;27468;47.460;19.034;2023-05-03T12:37:20;100776.72;;;21.80;50.38
41800;BME280;27468;47.460;19.034;2023-05-03T12:39:45;100781.00;;;21.68;51.21
41800;BME280;27468;47.460;19.034;2023-05-03T12:42:10;100771.84;;;21.56;50.84
41800;BME280;27468;47.460;19.034;2023-05-03T12:44:39;100780.09;;;21.53;50.77
41800;BME280;27468;47.460;19.034;2023-05-03T12:47:05;100779.94;;;21.70;50.78
41800;BME280;27468;47.460;19.034;2023-05-03T12:49:30;100718.31;;;21.25;51.36
41800;BME280;27468;47.460;19.034;2023-05-03T12:51:56;100754.22;;;21.52;51.80
41800;BME280;27468;47.460;19.034;2023-05-03T12:54:24;100732.75;;;21.22;52.28